Time;durP1;ratioP1;P1;durP2;ratioP2;P2;SDS_P1;SDS_P2;PMS_P1;PMS_P2;Temp;Humidity;BMP_temperature;BMP_pressure;BME280_temperature;BME280_humidity;BME280_pressure;Samples;Min_cycle;Max_cycle;Signal;HPM_P1;HPM_P2
2023/03/29 00:01:10;;;;;;;2.05;0.80;;;;;;;;;;5032134;28;20044;-86
2023/03/29 00:03:38;;;;;;;1.52;0.90;;;;;;;;;;5037038;23;20061;-83
2023/03/29 00:06:04;;;;;;;1.27;0.90;;;;;;;;;;5016872;28;20115;-84
2023/03/29 00:08:30;;;;;;;1.15;0.85;;;;;;;;;;5008743;28;20034;-85
2023/03/29 00:10:58;;;;;;;2.20;1.20;;;;;;;;;;5017834;28;20042;-84
2023/03/29 00:13:25;;;;;;;1.77;1.00;;;;;;;;;;5027184;28;20466;-83
2023/03/29 00:15:51;;;;;;;1.58;0.90;;;;;;;;;;5031800;28;20037;-84
2023/03/29 00:18:16;;;;;;;2.30;0.85;;;;;;;;;;5034468;28;20037;-84
2023/03/29 00:20:42;;;;;;;1.20;0.90;;;;;;;;;;5036466;28;20397;-84
2023/03/29 00:23:07;;;;;;;1.35;0.85;;;;;;;;;;5036480;28;20057;-84
2023/03/29 00:25:33;;;;;;;2.83;0.90;;;;;;;;;;5036271;28;20029;-84
2023/03/29 00:27:58;;;;;;;1.42;0.80;;;;;;;;;;5051452;28;20029;-82
2023/03/29 00:30:24;;;;;;;1.40;0.95;;;;;;;;;;5022844;28;20028;-84
2023/03/29 00:32:50;;;;;;;1.40;0.90;;;;;;;;;;5036463;28;20512;-83
2023/03/29 00:35:16;;;;;;;2.60;0.95;;;;;;;;;;5031832;28;20030;-83
2023/03/29 00:37:41;;;;;;;3.00;1.00;;;;;;;;;;5034600;28;20025;-84
2023/03/29 00:40:09;;;;;;;3.20;1.10;;;;;;;;;;5034053;28;20056;-84
2023/03/29 00:42:36;;;;;;;2.15;1.20;;;;;;;;;;5034588;28;20548;-83
2023/03/29 00:45:05;;;;;;;1.65;0.90;;;;;;;;;;5017624;28;20124;-83
2023/03/29 00:47:45;;;;;;;1.60;0.90;;;;;;;;;;5033255;28;20540;-84
2023/03/29 00:50:28;;;;;;;1.20;0.90;;;;;;;;;;5018737;28;20033;-82
2023/03/29 00:53:02;;;;;;;1.80;1.00;;;;;;;;;;5027034;28;20081;-83
2023/03/29 00:55:32;;;;;;;1.35;1.00;;;;;;;;;;5036122;28;20108;-82
2023/03/29 00:57:59;;;;;;;2.47;1.10;;;;;;;;;;5025664;28;20116;-83
2023/03/29 01:00:30;;;;;;;1.65;0.95;;;;;;;;;;5031471;28;20393;-83
2023/03/29 01:02:58;;;;;;;2.30;1.10;;;;;;;;;;5018409;28;20432;-83
2023/03/29 01:05:36;;;;;;;1.25;1.00;;;;;;;;;;5034739;28;20026;-83
2023/03/29 01:08:07;;;;;;;3.05;0.90;;;;;;;;;;5018550;28;20033;-83
2023/03/29 01:10:38;;;;;;;2.00;1.00;;;;;;;;;;5035879;28;20040;-84
2023/03/29 01:13:13;;;;;;;2.97;1.00;;;;;;;;;;5034386;28;20029;-83
2023/03/29 01:15:42;;;;;;;2.75;1.10;;;;;;;;;;5030457;28;20033;-83
2023/03/29 01:18:08;;;;;;;1.20;0.88;;;;;;;;;;5022264;28;20037;-84
2023/03/29 01:21:15;;;;;;;2.47;0.77;;;;;;;;;;5048163;28;20526;-81
2023/03/29 01:23:46;;;;;;;1.52;0.80;;;;;;;;;;4976815;28;20161;-84
2023/03/29 01:26:33;;;;;;;0.90;0.70;;;;;;;;;;4978097;28;20058;-82
2023/03/29 01:29:24;;;;;;;0.90;0.75;;;;;;;;;;5021984;28;20075;-83
2023/03/29 01:31:55;;;;;;;3.65;0.80;;;;;;;;;;5031220;28;20112;-82
2023/03/29 01:34:30;;;;;;;1.63;1.00;;;;;;;;;;5023511;28;20109;-81
2023/03/29 01:37:20;;;;;;;0.93;0.73;;;;;;;;;;5042375;28;20021;-83
2023/03/29 01:39:46;;;;;;;1.70;1.00;;;;;;;;;;5028039;28;20382;-81
2023/03/29 01:42:23;;;;;;;0.98;0.80;;;;;;;;;;5032934;28;20033;-83
2023/03/29 01:45:22;;;;;;;1.95;1.08;;;;;;;;;;5032643;28;20087;-80
2023/03/29 01:47:58;;;;;;;2.28;0.70;;;;;;;;;;5027045;28;20032;-81
2023/03/29 01:50:33;;;;;;;1.17;0.77;;;;;;;;;;5034190;28;20069;-83
2023/03/29 01:53:04;;;;;;;1.85;1.00;;;;;;;;;;5029178;28;20181;-82
2023/03/29 01:55:37;;;;;;;1.13;0.80;;;;;;;;;;5032714;28;20163;-83
2023/03/29 01:58:05;;;;;;;2.53;1.00;;;;;;;;;;5008276;28;20102;-81
2023/03/29 02:00:33;;;;;;;1.08;0.90;;;;;;;;;;5016581;28;20038;-82
2023/03/29 02:03:05;;;;;;;1.60;0.80;;;;;;;;;;5032757;28;20045;-84
2023/03/29 02:05:32;;;;;;;1.35;0.82;;;;;;;;;;5030476;28;20387;-82
2023/03/29 02:08:00;;;;;;;1.30;0.90;;;;;;;;;;5049455;28;20022;-84
2023/03/29 02:10:26;;;;;;;2.60;0.95;;;;;;;;;;5036461;28;20400;-83
2023/03/29 02:12:51;;;;;;;1.38;0.82;;;;;;;;;;5036385;28;20543;-82
2023/03/29 02:15:19;;;;;;;1.20;0.80;;;;;;;;;;5044779;28;20029;-83
2023/03/29 02:17:46;;;;;;;1.35;0.90;;;;;;;;;;5038229;28;20037;-84
2023/03/29 02:20:28;;;;;;;1.58;0.90;;;;;;;;;;5016636;28;20033;-83
2023/03/29 02:23:03;;;;;;;2.95;0.90;;;;;;;;;;5036064;28;20053;-84
2023/03/29 02:25:31;;;;;;;1.95;0.95;;;;;;;;;;5035786;28;20036;-83
2023/03/29 02:27:57;;;;;;;1.48;0.90;;;;;;;;;;5035848;28;20029;-83
2023/03/29 02:30:29;;;;;;;1.20;0.90;;;;;;;;;;5016246;28;20053;-83
2023/03/29 02:33:05;;;;;;;3.05;1.17;;;;;;;;;;5036551;28;20033;-82
2023/03/29 02:35:36;;;;;;;1.10;0.85;;;;;;;;;;5017280;28;20065;-83
2023/03/29 02:38:05;;;;;;;2.60;1.20;;;;;;;;;;5036283;28;20036;-83
2023/03/29 02:40:33;;;;;;;3.70;1.15;;;;;;;;;;5019733;28;20022;-83
2023/03/29 02:43:01;;;;;;;1.58;1.20;;;;;;;;;;5027863;28;20029;-84
2023/03/29 02:45:28;;;;;;;2.63;1.17;;;;;;;;;;5015413;28;20077;-83
2023/03/29 02:48:02;;;;;;;1.73;1.20;;;;;;;;;;5034081;28;20026;-83
2023/03/29 02:50:31;;;;;;;1.83;1.13;;;;;;;;;;5035804;28;20072;-81
2023/03/29 02:53:01;;;;;;;1.95;1.08;;;;;;;;;;5032668;28;20043;-83
2023/03/29 02:55:33;;;;;;;1.42;1.00;;;;;;;;;;5031844;28;20087;-83
2023/03/29 02:58:09;;;;;;;2.47;1.42;;;;;;;;;;5036028;28;20116;-83
2023/03/29 03:00:40;;;;;;;1.98;1.20;;;;;;;;;;4998704;28;20437;-83
2023/03/29 03:03:10;;;;;;;3.13;1.30;;;;;;;;;;5006117;28;20038;-83
2023/03/29 03:05:37;;;;;;;2.08;1.08;;;;;;;;;;5015122;28;20025;-83
2023/03/29 03:08:06;;;;;;;4.22;1.10;;;;;;;;;;5015353;28;20057;-84
2023/03/29 03:10:33;;;;;;;2.92;1.20;;;;;;;;;;5028620;28;20036;-82
2023/03/29 03:12:59;;;;;;;1.98;1.13;;;;;;;;;;5034771;28;20032;-82
2023/03/29 03:15:27;;;;;;;2.05;1.30;;;;;;;;;;5034989;28;20029;-82
2023/03/29 03:17:54;;;;;;;2.47;1.30;;;;;;;;;;5016671;28;20050;-84
2023/03/29 03:20:23;;;;;;;2.65;1.10;;;;;;;;;;5041779;28;20026;-83
2023/03/29 03:22:49;;;;;;;1.38;1.00;;;;;;;;;;5016012;28;20446;-82
2023/03/29 03:25:15;;;;;;;3.13;1.33;;;;;;;;;;5035588;28;20040;-83
2023/03/29 03:27:42;;;;;;;1.38;1.10;;;;;;;;;;5046976;28;20029;-83
2023/03/29 03:30:08;;;;;;;1.50;1.10;;;;;;;;;;5037226;28;20025;-83
2023/03/29 03:32:53;;;;;;;1.20;1.00;;;;;;;;;;5036049;28;20103;-83
2023/03/29 03:35:38;;;;;;;1.55;0.90;;;;;;;;;;5037737;28;20039;-83
2023/03/29 03:38:04;;;;;;;2.17;1.10;;;;;;;;;;5036738;28;20120;-83
2023/03/29 03:40:31;;;;;;;2.47;1.23;;;;;;;;;;5020207;28;20116;-83
2023/03/29 03:42:57;;;;;;;2.03;1.13;;;;;;;;;;5031968;28;20562;-84
2023/03/29 03:45:23;;;;;;;1.52;1.17;;;;;;;;;;5018748;28;20029;-85
2023/03/29 03:47:52;;;;;;;2.72;1.00;;;;;;;;;;5037244;28;20049;-84
2023/03/29 03:50:38;;;;;;;1.88;1.17;;;;;;;;;;5006426;28;20064;-84
2023/03/29 03:53:06;;;;;;;1.27;1.02;;;;;;;;;;5046859;28;20037;-83
2023/03/29 03:55:54;;;;;;;1.00;0.90;;;;;;;;;;5033037;28;20041;-83
2023/03/29 03:58:23;;;;;;;1.80;1.05;;;;;;;;;;5033672;28;20057;-83
2023/03/29 04:00:50;;;;;;;1.67;1.10;;;;;;;;;;5018568;28;20044;-84
2023/03/29 04:03:30;;;;;;;1.20;1.00;;;;;;;;;;5014187;28;20108;-84
2023/03/29 04:05:59;;;;;;;2.47;1.13;;;;;;;;;;5012269;28;20067;-83
2023/03/29 04:08:26;;;;;;;1.33;1.10;;;;;;;;;;5019155;28;20459;-84
2023/03/29 04:11:12;;;;;;;1.60;1.10;;;;;;;;;;5017513;28;20445;-83
2023/03/29 04:13:40;;;;;;;2.22;1.20;;;;;;;;;;5035126;28;20021;-82
2023/03/29 04:16:35;;;;;;;2.25;0.93;;;;;;;;;;5025754;28;20059;-82
2023/03/29 04:19:17;;;;;;;1.15;1.00;;;;;;;;;;5037025;28;20401;-83
2023/03/29 04:21:46;;;;;;;1.33;1.17;;;;;;;;;;5034132;28;20045;-82
2023/03/29 04:24:12;;;;;;;1.65;1.10;;;;;;;;;;5032801;28;20037;-82
2023/03/29 04:26:41;;;;;;;1.63;1.20;;;;;;;;;;5005574;28;20359;-81
2023/03/29 04:29:17;;;;;;;1.30;1.10;;;;;;;;;;5034277;28;20080;-83
2023/03/29 04:31:53;;;;;;;3.47;1.13;;;;;;;;;;5040256;28;20055;-84
2023/03/29 04:34:41;;;;;;;2.10;1.00;;;;;;;;;;5029781;28;20541;-82
2023/03/29 04:37:09;;;;;;;1.38;0.90;;;;;;;;;;5034325;28;20096;-84
2023/03/29 04:39:36;;;;;;;1.23;1.00;;;;;;;;;;5047045;28;20033;-83
2023/03/29 04:42:04;;;;;;;1.23;1.00;;;;;;;;;;5017493;28;20064;-84
2023/03/29 04:44:33;;;;;;;2.47;1.35;;;;;;;;;;5033436;28;20501;-84
2023/03/29 04:47:01;;;;;;;1.40;0.80;;;;;;;;;;5010987;28;20030;-82
2023/03/29 04:49:45;;;;;;;1.08;0.95;;;;;;;;;;5035955;28;20045;-83
2023/03/29 04:52:18;;;;;;;;;;;;;;;;;;5028363;28;20167;-83
2023/03/29 04:54:44;;;;;;;7.50;1.50;;;;;;;;;;5017179;28;20860;-84
2023/03/29 04:57:10;;;;;;;1.67;1.00;;;;;;;;;;5035455;28;20025;-84
2023/03/29 04:59:58;;;;;;;1.80;1.00;;;;;;;;;;5031150;28;20040;-82
2023/03/29 05:02:49;;;;;;;2.20;1.10;;;;;;;;;;5015215;28;20033;-83
2023/03/29 05:05:15;;;;;;;3.10;1.80;;;;;;;;;;5032628;28;20044;-83
2023/03/29 05:07:43;;;;;;;2.55;1.30;;;;;;;;;;5017363;28;20033;-84
2023/03/29 05:10:10;;;;;;;3.22;1.70;;;;;;;;;;5014381;28;20030;-83
2023/03/29 05:12:35;;;;;;;3.08;1.10;;;;;;;;;;5030929;28;20025;-84
2023/03/29 05:15:02;;;;;;;2.15;1.00;;;;;;;;;;5017250;28;20087;-84
2023/03/29 05:17:28;;;;;;;2.67;1.70;;;;;;;;;;5016824;28;20052;-84
2023/03/29 05:20:07;;;;;;;2.95;1.65;;;;;;;;;;5030484;28;20057;-83
2023/03/29 05:22:35;;;;;;;6.63;1.50;;;;;;;;;;5026379;28;20044;-82
2023/03/29 05:25:00;;;;;;;1.90;1.42;;;;;;;;;;5033864;28;20032;-84
2023/03/29 05:27:26;;;;;;;2.03;1.20;;;;;;;;;;5033115;28;20025;-84
2023/03/29 05:30:08;;;;;;;3.65;1.10;;;;;;;;;;5041126;28;20029;-83
2023/03/29 05:32:48;;;;;;;3.88;1.05;;;;;;;;;;5017642;28;20087;-84
2023/03/29 05:35:17;;;;;;;1.20;0.90;;;;;;;;;;5012620;28;20138;-83
2023/03/29 05:37:46;;;;;;;1.30;0.90;;;;;;;;;;5018262;28;20116;-84
2023/03/29 05:40:12;;;;;;;2.42;1.63;;;;;;;;;;5037531;28;20022;-80
2023/03/29 05:42:58;;;;;;;3.10;1.40;;;;;;;;;;5034927;28;20047;-84
2023/03/29 05:45:24;;;;;;;10.65;5.10;;;;;;;;;;5019348;28;20040;-84
2023/03/29 05:47:49;;;;;;;5.00;2.45;;;;;;;;;;5046485;28;20041;-83
2023/03/29 05:50:15;;;;;;;8.82;1.88;;;;;;;;;;5037537;28;20039;-83
2023/03/29 05:52:41;;;;;;;3.05;1.80;;;;;;;;;;5034268;28;20030;-84
2023/03/29 05:55:08;;;;;;;4.90;1.83;;;;;;;;;;5031068;28;20053;-82
2023/03/29 05:57:37;;;;;;;2.63;1.65;;;;;;;;;;5036955;28;20071;-84
2023/03/29 06:00:18;;;;;;;4.32;2.10;;;;;;;;;;5035918;28;20029;-81
2023/03/29 06:02:44;;;;;;;5.65;2.40;;;;;;;;;;5035046;28;20026;-82
2023/03/29 06:05:10;;;;;;;2.13;1.10;;;;;;;;;;5039599;28;20075;-82
2023/03/29 06:07:53;;;;;;;2.35;1.30;;;;;;;;;;5039313;28;20505;-82
2023/03/29 06:10:37;;;;;;;3.25;1.80;;;;;;;;;;5061739;23;20080;-86
2023/03/29 06:13:16;;;;;;;1.80;1.13;;;;;;;;;;5030840;28;20026;-87
2023/03/29 06:15:43;;;;;;;1.75;1.20;;;;;;;;;;5035047;28;20037;-87
2023/03/29 06:18:09;;;;;;;2.30;1.60;;;;;;;;;;5027645;28;20021;-87
2023/03/29 06:20:35;;;;;;;1.73;1.25;;;;;;;;;;5025120;28;20033;-87
2023/03/29 06:23:07;;;;;;;1.45;1.02;;;;;;;;;;5034475;28;20088;-87
2023/03/29 06:25:34;;;;;;;1.35;0.80;;;;;;;;;;5026071;28;20040;-85
2023/03/29 06:28:00;;;;;;;1.50;0.98;;;;;;;;;;5028147;28;20544;-86
2023/03/29 06:30:25;;;;;;;1.73;1.20;;;;;;;;;;5030379;28;20030;-85
2023/03/29 06:32:54;;;;;;;1.38;1.00;;;;;;;;;;5033543;28;20025;-86
2023/03/29 06:35:47;;;;;;;1.55;1.10;;;;;;;;;;5005595;28;20437;-86
2023/03/29 06:38:19;;;;;;;1.90;1.33;;;;;;;;;;5019171;28;20030;-85
2023/03/29 06:41:11;;;;;;;4.47;1.10;;;;;;;;;;5020988;28;20037;-88
2023/03/29 06:44:12;;;;;;;2.35;1.40;;;;;;;;;;4963368;28;20035;-88
2023/03/29 06:46:52;;;;;;;1.33;1.08;;;;;;;;;;4994886;28;20073;-87
2023/03/29 06:49:17;;;;;;;5.25;2.20;;;;;;;;;;5023346;28;20048;-86
2023/03/29 06:51:55;;;;;;;3.70;1.40;;;;;;;;;;5032638;28;20025;-88
2023/03/29 06:54:21;;;;;;;2.03;1.38;;;;;;;;;;5029682;28;20018;-86
2023/03/29 06:56:58;;;;;;;1.38;1.00;;;;;;;;;;5022445;28;20052;-87
2023/03/29 06:59:25;;;;;;;2.22;1.50;;;;;;;;;;5026800;28;20037;-84
2023/03/29 07:02:08;;;;;;;2.75;1.15;;;;;;;;;;5049755;28;20239;-85
2023/03/29 07:05:05;;;;;;;2.17;1.20;;;;;;;;;;5010680;28;20033;-87
2023/03/29 07:08:29;;;;;;;1.90;1.20;;;;;;;;;;5020242;28;20398;-86
2023/03/29 07:10:44;;;;;;;1.45;1.02;;;;;;;;;;5022264;28;20052;-84
2023/03/29 07:13:32;;;;;;;2.03;1.10;;;;;;;;;;5020701;28;20037;-86
2023/03/29 07:16:00;;;;;;;2.85;1.25;;;;;;;;;;5020282;28;20075;-86
2023/03/29 07:18:43;;;;;;;1.83;1.10;;;;;;;;;;5021104;28;20056;-87
2023/03/29 07:21:13;;;;;;;2.92;1.77;;;;;;;;;;5024669;28;20517;-85
2023/03/29 07:23:39;;;;;;;1.67;1.20;;;;;;;;;;5035172;28;20021;-87
2023/03/29 07:26:09;;;;;;;2.17;1.13;;;;;;;;;;5026058;28;20032;-87
2023/03/29 07:28:36;;;;;;;1.33;0.90;;;;;;;;;;5010737;28;20124;-85
2023/03/29 07:31:12;;;;;;;5.05;1.10;;;;;;;;;;5028998;28;20034;-87
2023/03/29 07:33:44;;;;;;;1.20;0.90;;;;;;;;;;5030360;28;20026;-88
2023/03/29 07:36:09;;;;;;;1.13;0.90;;;;;;;;;;5040019;28;20112;-87
2023/03/29 07:38:36;;;;;;;1.27;0.90;;;;;;;;;;5023698;28;20068;-87
2023/03/29 07:41:08;;;;;;;4.03;1.40;;;;;;;;;;5033572;28;20042;-86
2023/03/29 07:43:45;;;;;;;4.63;1.63;;;;;;;;;;5032053;28;20049;-86
2023/03/29 07:46:13;;;;;;;2.53;1.05;;;;;;;;;;5022814;28;20033;-87
2023/03/29 07:48:39;;;;;;;2.95;1.40;;;;;;;;;;5025837;28;20055;-85
2023/03/29 07:51:07;;;;;;;2.78;1.38;;;;;;;;;;5021960;28;20121;-85
2023/03/29 07:53:43;;;;;;;3.97;1.98;;;;;;;;;;5023540;28;20025;-86
2023/03/29 07:56:27;;;;;;;;;;;;;;;;;;5019764;28;20048;-82
2023/03/29 07:59:15;;;;;;;3.75;1.80;;;;;;;;;;5019224;28;19913;-85
2023/03/29 08:01:43;;;;;;;6.13;1.90;;;;;;;;;;5021022;28;20048;-85
2023/03/29 08:04:09;;;;;;;2.75;1.75;;;;;;;;;;5022750;28;20506;-85
2023/03/29 08:06:54;;;;;;;3.28;1.63;;;;;;;;;;5020233;28;20044;-84
2023/03/29 08:09:22;;;;;;;2.20;1.48;;;;;;;;;;5020830;28;20366;-85
2023/03/29 08:11:48;;;;;;;2.83;1.00;;;;;;;;;;5030978;28;20091;-85
2023/03/29 08:14:27;;;;;;;3.47;1.00;;;;;;;;;;5017228;28;20030;-84
2023/03/29 08:17:01;;;;;;;3.08;1.08;;;;;;;;;;5033217;28;20525;-86
2023/03/29 08:19:27;;;;;;;1.50;0.90;;;;;;;;;;5034152;28;20029;-85
2023/03/29 08:22:04;;;;;;;2.80;1.30;;;;;;;;;;5020130;28;20014;-84
2023/03/29 08:24:50;;;;;;;2.85;1.27;;;;;;;;;;5021547;28;20121;-86
2023/03/29 08:27:16;;;;;;;3.47;1.45;;;;;;;;;;5025248;28;20032;-83
2023/03/29 08:29:42;;;;;;;3.08;1.30;;;;;;;;;;5025901;28;20117;-85
2023/03/29 08:32:08;;;;;;;3.35;1.20;;;;;;;;;;5025072;28;20034;-86
2023/03/29 08:34:34;;;;;;;1.98;1.00;;;;;;;;;;5036027;28;20026;-86
2023/03/29 08:37:20;;;;;;;5.85;1.30;;;;;;;;;;5014337;28;20037;-87
2023/03/29 08:39:47;;;;;;;2.97;0.70;;;;;;;;;;5007292;28;20033;-86
2023/03/29 08:43:11;;;;;;;1.85;0.88;;;;;;;;;;5024614;28;20033;-87
2023/03/29 08:46:24;;;;;;;1.10;0.82;;;;;;;;;;4997339;28;20041;-86
2023/03/29 08:48:55;;;;;;;2.42;1.25;;;;;;;;;;5006052;28;20097;-86
2023/03/29 08:51:33;;;;;;;1.63;0.82;;;;;;;;;;5024555;28;20036;-87
2023/03/29 08:54:23;;;;;;;2.15;1.00;;;;;;;;;;5026727;28;20440;-86
2023/03/29 08:57:16;;;;;;;1.33;0.80;;;;;;;;;;5023219;28;20577;-86
2023/03/29 08:59:50;;;;;;;2.05;1.00;;;;;;;;;;5002185;28;20026;-87
2023/03/29 09:02:21;;;;;;;2.75;1.20;;;;;;;;;;5024728;28;20547;-86
2023/03/29 09:04:55;;;;;;;2.45;1.05;;;;;;;;;;5033118;28;20112;-87
2023/03/29 09:07:31;;;;;;;1.83;1.02;;;;;;;;;;4995638;28;20578;-86
2023/03/29 09:09:57;;;;;;;2.60;1.20;;;;;;;;;;5028664;28;20034;-86
2023/03/29 09:12:55;;;;;;;1.10;0.90;;;;;;;;;;5030508;28;20534;-85
2023/03/29 09:15:27;;;;;;;1.48;1.00;;;;;;;;;;5022647;28;20502;-86
2023/03/29 09:18:21;;;;;;;1.40;0.93;;;;;;;;;;5011672;28;20087;-85
2023/03/29 09:20:59;;;;;;;2.10;1.17;;;;;;;;;;5024419;28;20085;-87
2023/03/29 09:23:37;;;;;;;4.50;1.10;;;;;;;;;;5003588;28;20027;-87
2023/03/29 09:26:48;;;;;;;0.70;0.70;;;;;;;;;;5007704;28;20124;-84
2023/03/29 09:29:53;;;;;;;0.90;0.85;;;;;;;;;;5015052;28;20371;-86
2023/03/29 09:32:32;;;;;;;3.28;1.10;;;;;;;;;;5028365;28;20482;-86
2023/03/29 09:35:21;;;;;;;2.83;0.95;;;;;;;;;;5028384;28;20022;-86
2023/03/29 09:37:49;;;;;;;2.17;1.00;;;;;;;;;;5026689;28;20029;-86
2023/03/29 09:40:26;;;;;;;2.47;1.10;;;;;;;;;;5033039;28;20071;-85
2023/03/29 09:43:11;;;;;;;1.90;0.90;;;;;;;;;;5027228;28;20046;-85
2023/03/29 09:45:38;;;;;;;1.23;0.90;;;;;;;;;;5026623;28;20041;-84
2023/03/29 09:48:13;;;;;;;1.10;0.80;;;;;;;;;;5038920;28;20041;-87
2023/03/29 09:50:45;;;;;;;1.15;0.82;;;;;;;;;;5016931;28;20029;-84
2023/03/29 09:53:15;;;;;;;3.20;0.90;;;;;;;;;;5030997;28;20040;-85
2023/03/29 09:55:49;;;;;;;1.67;0.88;;;;;;;;;;5023354;28;20438;-84
2023/03/29 09:58:43;;;;;;;2.35;1.10;;;;;;;;;;5023274;28;20033;-83
2023/03/29 10:01:12;;;;;;;1.88;1.40;;;;;;;;;;5006579;28;20029;-84
2023/03/29 10:03:40;;;;;;;1.98;1.30;;;;;;;;;;5034361;28;20033;-84
2023/03/29 10:06:11;;;;;;;1.50;1.10;;;;;;;;;;5023535;28;20022;-85
2023/03/29 10:08:48;;;;;;;2.80;1.50;;;;;;;;;;5008376;28;20033;-83
2023/03/29 10:11:22;;;;;;;2.60;1.10;;;;;;;;;;5023694;28;20037;-86
2023/03/29 10:13:50;;;;;;;;;;;;;;;;;;5026216;28;20498;-82
2023/03/29 10:16:38;;;;;;;2.63;1.65;;;;;;;;;;5032563;28;19916;-86
2023/03/29 10:19:27;;;;;;;3.47;1.42;;;;;;;;;;5006312;28;20129;-84
2023/03/29 10:21:53;;;;;;;2.40;1.50;;;;;;;;;;5006493;28;20033;-85
2023/03/29 10:24:21;;;;;;;3.72;1.00;;;;;;;;;;5023953;28;20030;-87
2023/03/29 10:26:54;;;;;;;1.33;1.00;;;;;;;;;;5026556;28;20393;-87
2023/03/29 10:29:20;;;;;;;7.32;1.30;;;;;;;;;;5020650;28;20030;-86
2023/03/29 10:31:46;;;;;;;4.97;1.50;;;;;;;;;;5007417;28;20040;-84
2023/03/29 10:34:15;;;;;;;3.25;1.00;;;;;;;;;;5023997;28;20029;-84
2023/03/29 10:36:45;;;;;;;2.85;1.30;;;;;;;;;;5023302;28;20057;-86
2023/03/29 10:39:15;;;;;;;4.72;1.15;;;;;;;;;;5018612;28;20041;-83
2023/03/29 10:41:41;;;;;;;2.03;1.15;;;;;;;;;;5027878;28;20097;-84
2023/03/29 10:44:25;;;;;;;2.28;1.05;;;;;;;;;;5049172;28;20508;-83
2023/03/29 10:46:50;;;;;;;3.03;1.35;;;;;;;;;;5004392;28;20042;-82
2023/03/29 10:49:19;;;;;;;3.50;1.60;;;;;;;;;;5026523;28;20037;-82
2023/03/29 10:51:48;;;;;;;3.90;1.15;;;;;;;;;;5032781;28;20034;-83
2023/03/29 10:54:16;;;;;;;4.57;1.40;;;;;;;;;;5026823;28;20036;-83
2023/03/29 10:57:02;;;;;;;2.85;1.30;;;;;;;;;;5016773;28;20121;-85
2023/03/29 10:59:31;;;;;;;2.05;1.10;;;;;;;;;;5021705;28;20046;-84
2023/03/29 11:02:04;;;;;;;1.90;1.10;;;;;;;;;;5020305;28;20033;-86
2023/03/29 11:04:38;;;;;;;2.20;1.00;;;;;;;;;;5024234;28;20037;-86
2023/03/29 11:07:22;;;;;;;1.60;1.05;;;;;;;;;;5019414;28;20117;-85
2023/03/29 11:09:48;;;;;;;;;;;;;;;;;;5023669;28;20419;-81
2023/03/29 11:12:22;;;;;;;4.70;1.58;;;;;;;;;;5008745;28;19909;-86
2023/03/29 11:15:08;;;;;;;4.50;1.50;;;;;;;;;;5024496;28;20152;-85
2023/03/29 11:17:54;;;;;;;3.47;1.35;;;;;;;;;;5021817;28;20042;-83
2023/03/29 11:20:19;;;;;;;4.68;1.60;;;;;;;;;;5018796;28;20150;-86
2023/03/29 11:22:55;;;;;;;3.72;1.73;;;;;;;;;;5025233;28;20117;-86
2023/03/29 11:25:36;;;;;;;4.95;1.20;;;;;;;;;;5022789;28;20069;-85
2023/03/29 11:28:22;;;;;;;2.40;0.98;;;;;;;;;;5023956;28;20046;-84
2023/03/29 11:31:04;;;;;;;3.17;1.10;;;;;;;;;;5011112;28;20422;-84
2023/03/29 11:33:45;;;;;;;1.85;1.10;;;;;;;;;;5022271;28;20034;-84
2023/03/29 11:36:17;;;;;;;2.30;1.05;;;;;;;;;;5019842;28;20045;-84
2023/03/29 11:39:10;;;;;;;3.40;1.00;;;;;;;;;;5024492;28;20037;-86
2023/03/29 11:41:41;;;;;;;2.90;1.00;;;;;;;;;;5024561;28;20034;-83
2023/03/29 11:44:27;;;;;;;2.38;0.90;;;;;;;;;;5018846;28;20035;-83
2023/03/29 11:47:19;;;;;;;4.07;1.13;;;;;;;;;;5019019;28;20481;-84
2023/03/29 11:49:53;;;;;;;1.73;0.90;;;;;;;;;;5039992;28;20497;-83
2023/03/29 11:52:18;;;;;;;1.13;0.93;;;;;;;;;;5030379;28;20048;-83
2023/03/29 11:55:01;;;;;;;1.55;0.93;;;;;;;;;;5023873;28;20022;-84
2023/03/29 11:57:46;;;;;;;2.50;0.93;;;;;;;;;;5026139;28;20037;-83
2023/03/29 12:00:14;;;;;;;1.70;0.88;;;;;;;;;;5016546;28;20725;-84
2023/03/29 12:02:55;;;;;;;1.80;1.30;;;;;;;;;;5024781;28;20105;-82
2023/03/29 12:05:35;;;;;;;4.85;0.90;;;;;;;;;;5036663;28;20034;-85
2023/03/29 12:08:04;;;;;;;6.18;1.10;;;;;;;;;;5004708;28;20085;-86
2023/03/29 12:10:40;;;;;;;1.92;1.20;;;;;;;;;;5027849;28;20049;-84
2023/03/29 12:13:15;;;;;;;2.47;1.00;;;;;;;;;;5025455;28;20379;-84
2023/03/29 12:15:44;;;;;;;5.93;1.60;;;;;;;;;;5023103;23;20034;-81
2023/03/29 12:18:20;;;;;;;3.35;1.33;;;;;;;;;;5017621;28;20046;-81
2023/03/29 12:20:51;;;;;;;5.18;1.38;;;;;;;;;;4995486;28;20034;-82
2023/03/29 12:23:16;;;;;;;3.83;1.00;;;;;;;;;;5001386;28;20038;-82
2023/03/29 12:26:15;;;;;;;4.60;1.20;;;;;;;;;;5018953;28;21604;-82
2023/03/29 12:28:52;;;;;;;3.90;1.10;;;;;;;;;;5019409;28;20069;-83
2023/03/29 12:31:33;;;;;;;2.15;1.10;;;;;;;;;;5019263;28;20034;-83
2023/03/29 12:34:17;;;;;;;4.88;2.28;;;;;;;;;;5006235;28;20037;-82
2023/03/29 12:37:24;;;;;;;2.80;1.88;;;;;;;;;;5017721;28;20391;-81
2023/03/29 12:40:12;;;;;;;2.58;1.38;;;;;;;;;;4994892;28;20053;-82
2023/03/29 12:43:04;;;;;;;2.45;1.15;;;;;;;;;;5017267;28;20105;-82
2023/03/29 12:45:52;;;;;;;3.63;1.38;;;;;;;;;;5017256;28;20048;-83
2023/03/29 12:48:22;;;;;;;2.35;1.10;;;;;;;;;;5019479;28;20026;-83
2023/03/29 12:50:50;;;;;;;2.00;1.10;;;;;;;;;;5016071;28;20038;-83
2023/03/29 12:53:21;;;;;;;3.42;1.00;;;;;;;;;;5018783;28;20256;-84
2023/03/29 12:56:18;;;;;;;3.47;1.70;;;;;;;;;;5001027;28;20030;-83
2023/03/29 12:59:16;;;;;;;1.48;1.08;;;;;;;;;;4993413;28;20522;-83
2023/03/29 13:01:56;;;;;;;3.05;1.63;;;;;;;;;;5014509;28;20026;-84
2023/03/29 13:04:32;;;;;;;7.85;1.73;;;;;;;;;;5018175;28;20066;-83
2023/03/29 13:07:04;;;;;;;2.08;1.20;;;;;;;;;;5019311;28;20034;-83
2023/03/29 13:09:48;;;;;;;2.78;1.02;;;;;;;;;;5017793;28;20121;-82
2023/03/29 13:12:14;;;;;;;;;;;;;;;;;;5018111;28;20491;-80
2023/03/29 13:14:48;;;;;;;2.20;1.10;;;;;;;;;;5018257;28;19909;-83
2023/03/29 13:17:35;;;;;;;4.00;1.10;;;;;;;;;;5019268;28;20042;-83
2023/03/29 13:20:36;;;;;;;4.55;1.30;;;;;;;;;;5015644;28;20034;-83
2023/03/29 13:23:28;;;;;;;2.40;1.33;;;;;;;;;;4992896;28;20029;-83
2023/03/29 13:26:07;;;;;;;2.38;1.70;;;;;;;;;;5000004;28;20053;-83
2023/03/29 13:28:32;;;;;;;3.60;2.40;;;;;;;;;;5016875;28;20410;-84
2023/03/29 13:31:11;;;;;;;2.72;1.45;;;;;;;;;;5019859;28;20030;-83
2023/03/29 13:34:05;;;;;;;1.10;0.90;;;;;;;;;;5016766;28;20121;-83
2023/03/29 13:36:35;;;;;;;1.23;0.80;;;;;;;;;;5016535;28;20077;-82
2023/03/29 13:39:05;;;;;;;1.63;1.00;;;;;;;;;;5020415;28;20045;-84
2023/03/29 13:41:37;;;;;;;3.28;1.05;;;;;;;;;;5016640;28;20038;-83
2023/03/29 13:44:04;;;;;;;1.80;0.73;;;;;;;;;;5019822;28;20038;-84
2023/03/29 13:46:42;;;;;;;3.03;1.10;;;;;;;;;;5001743;28;20394;-82
2023/03/29 13:49:24;;;;;;;2.13;1.20;;;;;;;;;;5017252;28;20413;-83
2023/03/29 13:51:53;;;;;;;3.17;0.95;;;;;;;;;;5016039;28;20086;-83
2023/03/29 13:54:31;;;;;;;0.82;0.80;;;;;;;;;;5021823;28;20117;-83
2023/03/29 13:57:28;;;;;;;4.07;1.00;;;;;;;;;;5012896;28;20056;-83
2023/03/29 13:59:58;;;;;;;3.47;2.20;;;;;;;;;;5010658;28;20064;-83
2023/03/29 14:02:35;;;;;;;2.55;1.20;;;;;;;;;;5003560;28;20132;-85
2023/03/29 14:05:03;;;;;;;3.83;1.80;;;;;;;;;;4998200;28;20106;-88
2023/03/29 14:07:32;;;;;;;1.52;1.00;;;;;;;;;;5020879;28;20057;-86
2023/03/29 14:09:59;;;;;;;1.25;0.80;;;;;;;;;;5022190;28;20033;-84
2023/03/29 14:12:32;;;;;;;1.00;0.65;;;;;;;;;;5022884;28;20036;-84
2023/03/29 14:15:00;;;;;;;1.65;0.90;;;;;;;;;;5020744;28;20037;-87
2023/03/29 14:17:27;;;;;;;1.73;0.90;;;;;;;;;;5004337;28;20037;-87
2023/03/29 14:19:56;;;;;;;2.45;0.98;;;;;;;;;;5021967;28;20034;-88
2023/03/29 14:22:22;;;;;;;2.33;1.27;;;;;;;;;;4997293;28;20096;-88
2023/03/29 14:24:53;;;;;;;1.70;0.90;;;;;;;;;;5018801;28;20038;-87
2023/03/29 14:27:20;;;;;;;6.18;0.88;;;;;;;;;;4987515;28;20045;-88
2023/03/29 14:29:48;;;;;;;2.67;1.13;;;;;;;;;;5001955;28;20506;-88
2023/03/29 14:32:16;;;;;;;2.28;1.05;;;;;;;;;;5020314;28;20121;-88
2023/03/29 14:34:43;;;;;;;4.63;1.45;;;;;;;;;;5002207;28;20075;-88
2023/03/29 14:37:12;;;;;;;2.10;1.25;;;;;;;;;;5002743;28;20498;-87
2023/03/29 14:39:39;;;;;;;4.25;1.40;;;;;;;;;;5022944;28;20121;-88
2023/03/29 14:42:13;;;;;;;7.70;3.45;;;;;;;;;;4986170;28;20091;-88
2023/03/29 14:44:38;;;;;;;12.57;6.63;;;;;;;;;;5021687;28;20471;-88
2023/03/29 14:47:04;;;;;;;8.10;4.20;;;;;;;;;;5021711;28;20037;-88
2023/03/29 14:49:30;;;;;;;2.00;1.40;;;;;;;;;;5011058;28;20108;-88
2023/03/29 14:51:56;;;;;;;5.03;1.15;;;;;;;;;;5023124;28;20030;-88
2023/03/29 14:54:27;;;;;;;3.72;1.30;;;;;;;;;;4986559;28;20084;-88
2023/03/29 14:56:53;;;;;;;2.45;1.00;;;;;;;;;;5004023;28;20029;-90
2023/03/29 14:59:26;;;;;;;3.60;1.10;;;;;;;;;;5023886;28;20032;-89
2023/03/29 15:01:52;;;;;;;1.33;0.90;;;;;;;;;;5018868;28;20095;-86
2023/03/29 15:04:18;;;;;;;1.85;1.10;;;;;;;;;;5020333;28;20149;-84
2023/03/29 15:06:45;;;;;;;2.13;0.90;;;;;;;;;;5020670;28;20041;-85
2023/03/29 15:09:38;;;;;;;2.90;1.52;;;;;;;;;;4998759;28;20042;-85
2023/03/29 15:12:04;;;;;;;2.83;1.40;;;;;;;;;;5016766;28;20049;-82
2023/03/29 15:14:36;;;;;;;2.70;1.20;;;;;;;;;;5018091;28;20034;-85
2023/03/29 15:17:15;;;;;;;3.42;1.00;;;;;;;;;;5018648;28;20068;-84
2023/03/29 15:19:40;;;;;;;4.32;1.30;;;;;;;;;;4990616;28;20114;-85
2023/03/29 15:22:09;;;;;;;4.28;1.42;;;;;;;;;;5018946;28;20057;-84
2023/03/29 15:24:42;;;;;;;1.77;1.00;;;;;;;;;;5002080;28;20057;-85
2023/03/29 15:27:17;;;;;;;1.77;1.02;;;;;;;;;;5008575;28;20046;-84